createdAt,value
2018-02-23T00:00:21.508Z,-1.10
2018-02-23T00:02:47.531Z,-1.10
2018-02-23T00:05:13.520Z,-1.00
2018-02-23T00:07:47.595Z,-1.10
2018-02-23T00:10:13.590Z,-1.20
2018-02-23T00:12:39.572Z,-1.70
2018-02-23T00:15:05.561Z,-1.20
2018-02-23T00:17:31.530Z,-1.50
2018-02-23T00:19:57.543Z,-1.30
2018-02-23T00:22:35.905Z,-1.20
2018-02-23T00:25:01.904Z,-1.40
2018-02-23T00:27:27.994Z,-1.40
2018-02-23T00:29:54.011Z,-1.30
2018-02-23T00:32:20.063Z,-1.20
2018-02-23T00:34:46.043Z,-1.20
2018-02-23T00:37:12.020Z,-1.30
2018-02-23T00:39:38.000Z,-1.30
2018-02-23T00:42:03.980Z,-1.30
2018-02-23T00:44:29.977Z,-1.40
2018-02-23T00:46:55.995Z,-1.40
2018-02-23T00:49:22.074Z,-1.40
2018-02-23T00:51:48.095Z,-1.40
2018-02-23T00:54:14.122Z,-1.50
2018-02-23T00:56:47.005Z,-1.60
2018-02-23T00:59:13.724Z,-1.40
2018-02-23T01:01:39.710Z,-1.40
2018-02-23T01:04:05.742Z,-1.40
2018-02-23T01:06:31.718Z,-1.50
2018-02-23T01:08:57.720Z,-1.60
2018-02-23T01:11:23.752Z,-1.60
2018-02-23T01:13:49.745Z,-1.50
2018-02-23T01:16:15.729Z,-1.50
2018-02-23T01:18:41.703Z,-1.40
2018-02-23T01:21:07.693Z,-1.50
2018-02-23T01:23:33.681Z,-1.50
2018-02-23T01:25:59.686Z,-1.50
2018-02-23T01:28:25.761Z,-1.60
2018-02-23T01:30:51.804Z,-1.50
2018-02-23T01:33:17.790Z,-1.50
2018-02-23T01:35:43.772Z,-1.50
2018-02-23T01:38:09.752Z,-1.50
2018-02-23T01:40:35.758Z,-1.50
2018-02-23T01:43:02.469Z,-1.50
2018-02-23T01:45:28.454Z,-1.50
2018-02-23T01:47:55.193Z,-1.60
2018-02-23T01:50:21.237Z,-1.60
2018-02-23T01:52:47.226Z,-1.60
2018-02-23T01:55:13.216Z,-1.50
2018-02-23T01:57:39.937Z,-1.60
2018-02-23T02:00:05.956Z,-1.60
2018-02-23T02:02:31.945Z,-1.70
2018-02-23T02:04:57.930Z,-1.70
2018-02-23T02:07:23.949Z,-1.70
2018-02-23T02:09:49.976Z,-1.70
2018-02-23T02:12:15.966Z,-1.70
2018-02-23T02:14:41.937Z,-1.60
2018-02-23T02:17:07.912Z,-1.60
2018-02-23T02:19:33.896Z,-1.60
2018-02-23T02:21:59.889Z,-1.70
2018-02-23T02:24:25.903Z,-1.70
2018-02-23T02:26:51.961Z,-1.70
2018-02-23T02:29:17.956Z,-1.70
2018-02-23T02:31:43.957Z,-1.60
2018-02-23T02:34:10.697Z,-1.60
2018-02-23T02:36:37.452Z,-1.80
2018-02-23T02:39:03.423Z,-1.90
2018-02-23T02:41:29.434Z,-1.70
2018-02-23T02:43:56.197Z,-1.70
2018-02-23T02:46:23.025Z,-1.70
2018-02-23T02:48:49.838Z,-1.90
2018-02-23T02:51:15.840Z,-1.90
2018-02-23T02:53:42.563Z,-2.00
2018-02-23T02:56:08.537Z,-1.90
2018-02-23T02:58:35.235Z,-2.00
2018-02-23T03:01:01.244Z,-2.00
2018-02-23T03:03:27.242Z,-1.90
2018-02-23T03:05:54.029Z,-2.00
2018-02-23T03:08:20.053Z,-2.00
2018-02-23T03:10:46.020Z,-2.00
2018-02-23T03:13:11.983Z,-2.00
2018-02-23T03:15:37.970Z,-2.00
2018-02-23T03:18:03.976Z,-2.20
2018-02-23T03:20:29.948Z,-2.10
2018-02-23T03:22:55.956Z,-1.90
2018-02-23T03:25:22.780Z,-1.90
2018-02-23T03:27:48.801Z,-1.90
2018-02-23T03:30:15.423Z,-2.00
2018-02-23T03:32:41.397Z,-2.00
2018-02-23T03:35:07.380Z,-2.00
2018-02-23T03:37:33.371Z,-2.00
2018-02-23T03:39:59.343Z,-2.00
2018-02-23T03:42:26.095Z,-2.00
2018-02-23T03:44:52.147Z,-2.00
2018-02-23T03:47:18.140Z,-2.10
2018-02-23T03:49:44.127Z,-2.10
2018-02-23T03:52:10.137Z,-2.00
2018-02-23T03:54:36.857Z,-2.00
2018-02-23T03:57:02.832Z,-2.00
2018-02-23T03:59:29.534Z,-2.00
2018-02-23T04:01:55.600Z,-2.00
2018-02-23T04:04:21.607Z,-2.10
2018-02-23T04:06:47.574Z,-2.00
2018-02-23T04:09:14.268Z,-2.20
2018-02-23T04:11:40.234Z,-2.20
2018-02-23T04:14:06.235Z,-2.20
2018-02-23T04:16:32.273Z,-2.30
2018-02-23T04:18:58.347Z,-2.30
2018-02-23T04:21:24.445Z,-2.30
2018-02-23T04:23:50.668Z,-2.40
2018-02-23T04:26:16.696Z,-2.40
2018-02-23T04:28:43.443Z,-2.40
2018-02-23T04:31:10.242Z,-2.50
2018-02-23T04:33:36.315Z,-2.60
2018-02-23T04:36:03.080Z,-2.50
2018-02-23T04:38:29.149Z,-2.50
2018-02-23T04:40:55.416Z,-2.70
2018-02-23T04:43:21.708Z,-2.50
2018-02-23T04:45:47.759Z,-2.60
2018-02-23T04:48:13.778Z,-2.50
2018-02-23T04:50:40.586Z,-2.70
2018-02-23T04:53:06.608Z,-2.80
2018-02-23T04:55:32.657Z,-2.70
2018-02-23T04:57:58.777Z,-2.60
2018-02-23T05:00:24.816Z,-2.70
2018-02-23T05:02:50.902Z,-2.70
2018-02-23T05:05:17.627Z,-2.70
2018-02-23T05:07:43.603Z,-2.70
2018-02-23T05:10:09.594Z,-2.70
2018-02-23T05:12:35.554Z,-2.70
2018-02-23T05:15:01.550Z,-2.60
2018-02-23T05:17:27.579Z,-2.70
2018-02-23T05:19:53.560Z,-2.80
2018-02-23T05:22:19.588Z,-2.80
2018-02-23T05:24:45.547Z,-2.80
2018-02-23T05:27:11.524Z,-2.80
2018-02-23T05:29:37.499Z,-2.80
2018-02-23T05:32:03.539Z,-2.70
2018-02-23T05:34:29.548Z,-2.80
2018-02-23T05:36:55.593Z,-2.80
2018-02-23T05:39:21.624Z,-2.80
2018-02-23T05:41:47.604Z,-2.80
2018-02-23T05:44:13.575Z,-2.90
2018-02-23T05:46:39.545Z,-2.90
2018-02-23T05:49:05.502Z,-2.90
2018-02-23T05:51:31.495Z,-3.00
2018-02-23T05:53:57.474Z,-2.80
2018-02-23T05:56:24.983Z,-2.80
2018-02-23T05:58:51.067Z,-2.80
2018-02-23T06:01:17.051Z,-2.90
2018-02-23T06:03:43.029Z,-2.80
2018-02-23T06:06:09.018Z,-2.80
2018-02-23T06:08:35.723Z,-3.00
2018-02-23T06:11:01.724Z,-3.00
2018-02-23T06:13:27.869Z,-3.00
2018-02-23T06:15:59.911Z,-2.90
2018-02-23T06:18:32.799Z,-3.00
2018-02-23T06:20:58.833Z,-3.00
2018-02-23T06:23:24.851Z,-2.90
2018-02-23T06:25:50.880Z,-2.70
2018-02-23T06:28:16.848Z,-2.70
2018-02-23T06:30:43.570Z,-2.80
2018-02-23T06:33:09.563Z,-2.80
2018-02-23T06:35:35.544Z,-2.70
2018-02-23T06:38:01.519Z,-2.70
2018-02-23T06:40:28.284Z,-2.60
2018-02-23T06:42:54.304Z,-2.60
2018-02-23T06:45:21.083Z,-2.30
2018-02-23T06:47:47.059Z,-2.30
2018-02-23T06:50:13.035Z,-1.90
2018-02-23T06:52:38.999Z,-1.90
2018-02-23T06:55:04.990Z,-1.70
2018-02-23T06:57:30.996Z,-1.60
2018-02-23T06:59:57.025Z,-1.40
2018-02-23T07:02:23.004Z,-1.20
2018-02-23T07:04:48.965Z,-0.70
2018-02-23T07:07:15.675Z,-0.10
2018-02-23T07:09:41.658Z,-0.10
2018-02-23T07:12:08.356Z,0.00
2018-02-23T07:14:34.312Z,0.00
2018-02-23T07:17:00.360Z,0.40
2018-02-23T07:19:26.361Z,0.60
2018-02-23T07:21:52.300Z,0.60
2018-02-23T07:24:18.269Z,0.90
2018-02-23T07:26:44.990Z,1.20
2018-02-23T07:29:10.955Z,1.20
2018-02-23T07:31:37.667Z,1.30
2018-02-23T07:34:03.651Z,1.30
2018-02-23T07:36:30.396Z,1.30
2018-02-23T07:38:57.176Z,1.70
2018-02-23T07:41:23.131Z,1.60
2018-02-23T07:43:49.105Z,2.00
2018-02-23T07:46:15.080Z,1.90
2018-02-23T07:48:41.069Z,1.50
2018-02-23T07:51:07.090Z,1.80
2018-02-23T07:53:33.067Z,1.70
2018-02-23T07:55:59.039Z,1.90
2018-02-23T07:58:25.044Z,2.00
2018-02-23T08:00:51.769Z,2.70
2018-02-23T08:03:17.741Z,2.70
2018-02-23T08:05:44.459Z,3.00
2018-02-23T08:08:10.437Z,3.00
2018-02-23T08:10:36.404Z,2.80
2018-02-23T08:13:02.371Z,2.60
2018-02-23T08:15:28.376Z,2.30
2018-02-23T08:17:54.384Z,2.50
2018-02-23T08:20:20.401Z,2.30
2018-02-23T08:22:46.321Z,2.30
2018-02-23T08:25:12.276Z,2.30
2018-02-23T08:27:39.006Z,1.90
2018-02-23T08:30:04.987Z,1.90
2018-02-23T08:32:31.020Z,2.10
2018-02-23T08:35:03.963Z,2.40
2018-02-23T08:37:29.986Z,2.30
2018-02-23T08:39:55.987Z,2.10
2018-02-23T08:42:21.964Z,2.10
2018-02-23T08:44:47.935Z,1.90
2018-02-23T08:47:14.648Z,1.20
2018-02-23T08:49:40.622Z,1.20
2018-02-23T08:52:07.332Z,1.40
2018-02-23T08:54:33.289Z,1.40
2018-02-23T08:56:59.284Z,1.30
2018-02-23T08:59:25.255Z,0.50
2018-02-23T09:01:51.224Z,0.40
2018-02-23T09:04:17.932Z,0.30
2018-02-23T09:06:43.911Z,0.30
2018-02-23T09:09:10.608Z,0.10
2018-02-23T09:11:36.572Z,0.10
2018-02-23T09:14:02.543Z,0.00
2018-02-23T09:16:28.567Z,0.00
2018-02-23T09:18:55.299Z,-0.30
2018-02-23T09:21:21.253Z,-0.30
2018-02-23T09:23:47.958Z,-0.30
2018-02-23T09:26:13.919Z,-0.30
2018-02-23T09:28:39.901Z,-0.20
2018-02-23T09:31:05.858Z,-0.30
2018-02-23T09:33:44.183Z,-0.30
2018-02-23T09:36:10.140Z,-0.30
2018-02-23T09:38:36.106Z,-0.30
2018-02-23T09:41:02.834Z,-0.40
2018-02-23T09:43:29.612Z,-0.30
2018-02-23T09:45:56.337Z,-0.30
2018-02-23T09:48:22.310Z,-0.30
2018-02-23T09:50:48.299Z,-0.30
2018-02-23T09:53:14.263Z,-0.20
2018-02-23T09:55:41.003Z,-0.20
2018-02-23T09:58:06.976Z,-0.20
2018-02-23T10:00:32.933Z,-0.10
2018-02-23T10:02:58.949Z,-0.20
2018-02-23T10:05:24.973Z,-0.30
2018-02-23T10:07:51.686Z,-0.20
2018-02-23T10:10:17.661Z,-0.20
2018-02-23T10:12:44.365Z,-0.20
2018-02-23T10:15:10.323Z,-0.10
2018-02-23T10:17:36.275Z,-0.10
2018-02-23T10:20:03.012Z,-0.10
2018-02-23T10:22:29.004Z,-0.10
2018-02-23T10:24:54.987Z,-0.20
2018-02-23T10:27:20.951Z,0.00
2018-02-23T10:29:46.933Z,0.00
2018-02-23T10:32:12.923Z,0.00
2018-02-23T10:34:38.895Z,0.10
2018-02-23T10:37:04.919Z,0.10
2018-02-23T10:39:30.914Z,0.10
2018-02-23T10:41:57.690Z,0.10
2018-02-23T10:44:23.663Z,0.00
2018-02-23T10:46:49.637Z,0.10
2018-02-23T10:49:16.347Z,0.20
2018-02-23T10:51:42.328Z,0.10
2018-02-23T10:54:09.085Z,0.20
2018-02-23T10:56:35.055Z,0.20
2018-02-23T10:59:01.153Z,0.30
2018-02-23T11:01:27.879Z,0.40
2018-02-23T11:03:53.848Z,0.40
2018-02-23T11:06:19.809Z,0.40
2018-02-23T11:08:45.771Z,0.40
2018-02-23T11:11:11.752Z,0.40
2018-02-23T11:13:37.722Z,0.40
2018-02-23T11:16:03.675Z,0.40
2018-02-23T11:18:29.728Z,0.60
2018-02-23T11:20:56.451Z,0.70
2018-02-23T11:23:23.172Z,0.60
2018-02-23T11:25:49.131Z,0.60
2018-02-23T11:28:15.108Z,0.60
2018-02-23T11:30:41.084Z,0.60
2018-02-23T11:33:07.056Z,0.70
2018-02-23T11:35:33.044Z,0.60
2018-02-23T11:37:59.068Z,0.70
2018-02-23T11:40:25.890Z,0.70
2018-02-23T11:42:51.860Z,0.70
2018-02-23T11:45:18.566Z,0.70
2018-02-23T11:47:44.531Z,0.70
2018-02-23T11:50:10.489Z,0.80
2018-02-23T11:52:37.195Z,0.80
2018-02-23T11:55:03.162Z,0.80
2018-02-23T11:57:36.147Z,0.90
2018-02-23T12:00:02.253Z,0.80
2018-02-23T12:02:28.295Z,0.90
2018-02-23T12:04:54.271Z,1.20
2018-02-23T12:07:20.976Z,1.00
2018-02-23T12:09:46.942Z,1.00
2018-02-23T12:12:12.921Z,1.10
2018-02-23T12:14:38.894Z,1.20
2018-02-23T12:17:04.847Z,1.20
2018-02-23T12:19:32.308Z,1.00
2018-02-23T12:21:58.368Z,1.10
2018-02-23T12:24:24.358Z,1.10
2018-02-23T12:26:50.341Z,1.20
2018-02-23T12:29:17.067Z,1.20
2018-02-23T12:31:43.047Z,1.20
2018-02-23T12:34:09.040Z,1.30
2018-02-23T12:36:34.992Z,1.40
2018-02-23T12:39:01.001Z,1.40
2018-02-23T12:41:27.036Z,1.40
2018-02-23T12:43:53.021Z,1.50
2018-02-23T12:46:19.718Z,1.40
2018-02-23T12:48:45.700Z,1.40
2018-02-23T12:51:12.402Z,1.50
2018-02-23T12:53:38.375Z,1.50
2018-02-23T12:56:04.342Z,1.60
2018-02-23T12:58:30.380Z,1.60
2018-02-23T13:00:56.446Z,1.60
2018-02-23T13:03:22.427Z,1.60
2018-02-23T13:05:49.132Z,1.80
2018-02-23T13:08:22.046Z,1.80
2018-02-23T13:10:48.004Z,1.80
2018-02-23T13:13:13.973Z,1.70
2018-02-23T13:15:39.980Z,1.70
2018-02-23T13:18:06.688Z,1.80
2018-02-23T13:20:33.490Z,1.80
2018-02-23T13:22:59.479Z,1.80
2018-02-23T13:25:25.511Z,1.80
2018-02-23T13:27:58.056Z,1.90
2018-02-23T13:30:24.145Z,2.00
2018-02-23T13:32:50.251Z,1.90
2018-02-23T13:35:16.455Z,2.00
2018-02-23T13:37:43.389Z,2.10
2018-02-23T13:40:09.671Z,2.10
2018-02-23T13:42:36.075Z,2.10
2018-02-23T13:45:02.783Z,2.10
2018-02-23T13:47:28.997Z,2.10
2018-02-23T13:49:55.955Z,2.10
2018-02-23T13:52:22.096Z,2.10
2018-02-23T13:54:52.272Z,2.00
2018-02-23T13:57:18.359Z,2.00
2018-02-23T13:59:44.475Z,2.10
2018-02-23T14:02:10.600Z,2.20
2018-02-23T14:04:36.835Z,2.20
2018-02-23T14:07:09.114Z,2.20
2018-02-23T14:09:35.978Z,2.20
2018-02-23T14:12:02.214Z,2.30
2018-02-23T14:14:35.333Z,2.30
2018-02-23T14:17:01.340Z,2.30
2018-02-23T14:19:28.615Z,2.30
2018-02-23T14:21:55.409Z,2.30
2018-02-23T14:24:21.523Z,2.30
2018-02-23T14:26:47.703Z,2.40
2018-02-23T14:29:14.720Z,2.20
2018-02-23T14:31:40.815Z,2.20
2018-02-23T14:34:07.728Z,2.20
2018-02-23T14:36:34.029Z,2.20
2018-02-23T14:39:01.929Z,2.30
2018-02-23T14:41:28.266Z,2.30
2018-02-23T14:43:54.299Z,2.30
2018-02-23T14:46:21.013Z,2.20
2018-02-23T14:48:59.513Z,2.20
2018-02-23T14:51:25.618Z,2.30
2018-02-23T14:53:51.614Z,2.30
2018-02-23T14:56:17.803Z,2.20
2018-02-23T14:58:44.605Z,2.20
2018-02-23T15:01:10.616Z,2.30
2018-02-23T15:03:36.847Z,2.20
2018-02-23T15:06:03.984Z,2.20
2018-02-23T15:08:30.354Z,2.20
2018-02-23T15:10:56.631Z,2.30
2018-02-23T15:13:22.815Z,2.30
2018-02-23T15:15:48.962Z,2.30
2018-02-23T15:18:15.669Z,2.30
2018-02-23T15:20:41.643Z,2.30
2018-02-23T15:23:08.424Z,2.20
2018-02-23T15:25:34.587Z,2.10
2018-02-23T15:28:00.596Z,2.20
2018-02-23T15:30:39.770Z,2.10
2018-02-23T15:33:06.018Z,2.10
2018-02-23T15:35:32.247Z,2.10
2018-02-23T15:38:00.023Z,2.10
2018-02-23T15:40:27.003Z,2.10
2018-02-23T15:42:53.037Z,2.10
2018-02-23T15:45:19.040Z,2.00
2018-02-23T15:47:46.967Z,2.00
2018-02-23T15:50:19.231Z,2.00
2018-02-23T15:52:45.340Z,2.10
2018-02-23T15:55:11.465Z,1.90
2018-02-23T15:57:43.569Z,1.90
2018-02-23T16:00:09.551Z,1.90
2018-02-23T16:02:35.721Z,2.10
2018-02-23T16:05:03.399Z,1.90
2018-02-23T16:07:29.660Z,1.80
2018-02-23T16:09:55.958Z,1.80
2018-02-23T16:12:21.927Z,1.80
2018-02-23T16:14:48.812Z,1.60
2018-02-23T16:17:14.791Z,1.60
2018-02-23T16:19:41.551Z,1.60
2018-02-23T16:22:07.709Z,1.60
2018-02-23T16:24:33.873Z,1.50
2018-02-23T16:27:00.172Z,1.50
2018-02-23T16:29:26.420Z,1.50
2018-02-23T16:31:53.223Z,1.40
2018-02-23T16:34:19.200Z,1.40
2018-02-23T16:36:45.200Z,1.30
2018-02-23T16:39:11.163Z,1.10
2018-02-23T16:41:37.173Z,1.10
2018-02-23T16:44:03.854Z,1.00
2018-02-23T16:46:29.871Z,1.00
2018-02-23T16:48:55.903Z,1.00
2018-02-23T16:51:21.881Z,0.90
2018-02-23T16:53:48.572Z,0.80
2018-02-23T16:56:14.544Z,0.70
2018-02-23T16:58:40.525Z,0.60
2018-02-23T17:01:06.515Z,0.60
2018-02-23T17:03:33.398Z,0.60
2018-02-23T17:06:00.284Z,0.60
2018-02-23T17:08:26.934Z,0.60
2018-02-23T17:10:52.901Z,0.50
2018-02-23T17:13:18.859Z,0.60
2018-02-23T17:15:44.835Z,0.40
2018-02-23T17:18:10.820Z,0.50
2018-02-23T17:20:36.779Z,0.50
2018-02-23T17:23:03.650Z,0.40
2018-02-23T17:25:29.847Z,0.40
2018-02-23T17:27:56.718Z,0.40
2018-02-23T17:30:22.737Z,0.40
2018-02-23T17:32:48.671Z,0.30
2018-02-23T17:35:14.645Z,0.30
2018-02-23T17:37:41.452Z,0.30
2018-02-23T17:40:07.447Z,0.30
2018-02-23T17:42:34.409Z,0.30
2018-02-23T17:45:01.154Z,0.10
2018-02-23T17:47:28.100Z,0.00
2018-02-23T17:49:54.878Z,-0.10
2018-02-23T17:52:20.888Z,-0.10
2018-02-23T17:54:47.582Z,0.00
2018-02-23T17:57:13.542Z,0.00
2018-02-23T17:59:39.493Z,0.00
2018-02-23T18:02:05.648Z,0.10
2018-02-23T18:04:32.524Z,0.00
2018-02-23T18:06:58.587Z,0.00
2018-02-23T18:09:24.574Z,-0.10
2018-02-23T18:11:50.564Z,0.00
2018-02-23T18:14:16.520Z,-0.10
2018-02-23T18:16:42.487Z,-0.10
2018-02-23T18:19:09.200Z,-0.10
2018-02-23T18:21:35.167Z,-0.10
2018-02-23T18:24:01.920Z,-0.20
2018-02-23T18:26:27.940Z,-0.20
2018-02-23T18:28:53.918Z,-0.20
2018-02-23T18:31:19.883Z,-0.10
2018-02-23T18:33:45.878Z,-0.10
2018-02-23T18:36:12.600Z,-0.10
2018-02-23T18:38:38.602Z,-0.10
2018-02-23T18:41:04.559Z,-0.20
2018-02-23T18:43:30.625Z,-0.20
2018-02-23T18:45:56.688Z,-0.30
2018-02-23T18:48:22.649Z,-0.10
2018-02-23T18:50:48.610Z,-0.20
2018-02-23T18:53:14.578Z,-0.30
2018-02-23T18:55:41.274Z,-0.20
2018-02-23T18:58:07.268Z,-0.30
2018-02-23T19:00:34.082Z,-0.40
2018-02-23T19:03:00.180Z,-0.40
2018-02-23T19:05:26.248Z,-0.50
2018-02-23T19:07:52.222Z,-0.50
2018-02-23T19:10:18.952Z,-0.40
2018-02-23T19:12:44.943Z,-0.50
2018-02-23T19:15:10.976Z,-0.50
2018-02-23T19:17:36.976Z,-0.40
2018-02-23T19:20:02.974Z,-0.50
2018-02-23T19:22:28.955Z,-0.50
2018-02-23T19:24:55.784Z,-0.40
2018-02-23T19:27:21.764Z,-0.40
2018-02-23T19:29:47.743Z,-0.40
2018-02-23T19:32:13.737Z,-0.40
2018-02-23T19:34:39.724Z,-0.50
2018-02-23T19:37:05.748Z,-0.60
2018-02-23T19:39:31.783Z,-0.40
2018-02-23T19:41:57.877Z,-0.40
2018-02-23T19:44:24.589Z,-0.50
2018-02-23T19:46:50.551Z,-0.40
2018-02-23T19:49:17.289Z,-0.50
2018-02-23T19:51:43.291Z,-0.50
2018-02-23T19:54:09.251Z,-0.50
2018-02-23T19:56:35.246Z,-0.50
2018-02-23T19:59:01.238Z,-0.60
2018-02-23T20:01:27.972Z,-0.60
2018-02-23T20:03:53.954Z,-0.60
2018-02-23T20:06:19.937Z,-0.50
2018-02-23T20:08:45.931Z,-0.70
2018-02-23T20:11:11.904Z,-0.80
2018-02-23T20:13:37.867Z,-0.70
2018-02-23T20:16:03.860Z,-0.70
2018-02-23T20:18:29.861Z,-0.70
2018-02-23T20:20:55.957Z,-0.70
2018-02-23T20:23:21.920Z,-0.70
2018-02-23T20:25:48.629Z,-0.80
2018-02-23T20:28:14.575Z,-0.80
2018-02-23T20:30:40.595Z,-0.70
2018-02-23T20:33:06.571Z,-0.70
2018-02-23T20:35:32.640Z,-0.80
2018-02-23T20:37:58.670Z,-0.90
2018-02-23T20:40:24.653Z,-0.90
2018-02-23T20:42:50.628Z,-1.00
2018-02-23T20:45:17.339Z,-1.00
2018-02-23T20:47:43.320Z,-1.00
2018-02-23T20:50:10.036Z,-0.90
2018-02-23T20:52:36.031Z,-0.90
2018-02-23T20:55:02.035Z,-1.20
2018-02-23T20:57:28.855Z,-1.00
2018-02-23T20:59:54.826Z,-1.00
2018-02-23T21:02:21.543Z,-1.10
2018-02-23T21:04:47.514Z,-1.10
2018-02-23T21:07:14.227Z,-1.10
2018-02-23T21:09:40.184Z,-1.20
2018-02-23T21:12:06.153Z,-1.20
2018-02-23T21:14:32.126Z,-1.20
2018-02-23T21:16:58.149Z,-1.20
2018-02-23T21:19:24.120Z,-1.10
2018-02-23T21:21:50.139Z,-1.10
2018-02-23T21:24:16.116Z,-1.20
2018-02-23T21:26:42.830Z,-1.20
2018-02-23T21:29:08.807Z,-1.20
2018-02-23T21:31:34.780Z,-1.20
2018-02-23T21:34:00.762Z,-1.30
2018-02-23T21:36:26.744Z,-1.40
2018-02-23T21:38:52.707Z,-1.40
2018-02-23T21:41:18.684Z,-1.40
2018-02-23T21:43:45.391Z,-1.50
2018-02-23T21:46:11.396Z,-1.50
2018-02-23T21:48:37.368Z,-1.50
2018-02-23T21:51:03.344Z,-1.50
2018-02-23T21:53:30.063Z,-1.50
2018-02-23T21:55:56.063Z,-1.50
2018-02-23T21:58:22.035Z,-1.60
2018-02-23T22:00:47.996Z,-1.60
2018-02-23T22:03:14.741Z,-1.60
2018-02-23T22:05:41.451Z,-1.60
2018-02-23T22:08:07.414Z,-1.60
2018-02-23T22:10:33.473Z,-1.60
2018-02-23T22:13:00.219Z,-1.60
2018-02-23T22:15:26.295Z,-1.60
2018-02-23T22:17:52.268Z,-1.60
2018-02-23T22:20:18.248Z,-1.60
2018-02-23T22:22:45.037Z,-1.80
2018-02-23T22:25:11.003Z,-1.90
2018-02-23T22:27:36.963Z,-1.80
2018-02-23T22:30:03.683Z,-1.90
2018-02-23T22:32:29.699Z,-1.90
2018-02-23T22:34:55.823Z,-1.90
2018-02-23T22:37:21.810Z,-2.00
2018-02-23T22:39:48.516Z,-2.10
2018-02-23T22:42:14.496Z,-2.10
2018-02-23T22:44:41.991Z,-2.00
2018-02-23T22:47:08.700Z,-2.20
2018-02-23T22:49:34.681Z,-2.20
2018-02-23T22:52:01.437Z,-2.10
2018-02-23T22:54:28.209Z,-2.10
2018-02-23T22:56:54.188Z,-2.10
2018-02-23T22:59:20.897Z,-2.30
2018-02-23T23:01:46.882Z,-2.30
2018-02-23T23:04:12.837Z,-2.30
2018-02-23T23:06:39.546Z,-2.30
2018-02-23T23:09:05.504Z,-2.30
2018-02-23T23:11:31.491Z,-2.30
2018-02-23T23:13:57.496Z,-2.40
2018-02-23T23:16:24.224Z,-2.30
2018-02-23T23:18:50.210Z,-2.30
2018-02-23T23:21:16.171Z,-2.30
2018-02-23T23:23:42.155Z,-2.30
2018-02-23T23:26:08.852Z,-2.50
2018-02-23T23:28:34.826Z,-2.50
2018-02-23T23:31:00.924Z,-2.40
2018-02-23T23:33:26.937Z,-2.40
2018-02-23T23:35:52.916Z,-2.40
2018-02-23T23:38:18.897Z,-2.40
2018-02-23T23:40:44.910Z,-2.50
2018-02-23T23:43:10.865Z,-2.40
2018-02-23T23:45:37.620Z,-2.60
2018-02-23T23:48:04.344Z,-2.70
2018-02-23T23:50:30.424Z,-2.70
2018-02-23T23:52:56.428Z,-2.70
2018-02-23T23:55:23.131Z,-2.50
2018-02-23T23:57:49.121Z,-2.50
